Terminal Aerodrome Forecast
Issued by NWS Portland, OR

Home | Current Version | Previous Version | Text Only | Print | Product List | Glossary On
Versions: 1 2 3 4 5 6 7 8 9 10 11 12 13
000
FTUS46 KPQR 230539
TAFAST
TAF
KAST 230539Z 2306/2406 08003KT 2SM BR BKN028
     FM231100 12003KT 2SM BR BKN020
     FM231300 09003KT 6SM BR SKC
     FM231700 07004KT P6SM SKC
     FM232000 04005KT P6SM SKC=

USA.gov is the U.S. government's official web portal to all federal, state and local government web resources and services.